PWSweather.com
Personal Weather Stations
Station Observations
MARRWS
Allansford VictoriaAU 3277

Allansford VictoriaAU 3277

Lat: -38.4003683814149, Lon: 142.569826841354

Elevation: 36

Station Type: Fine Offset X7062

http://home.vicnet.net.au/~marr/Weather/

Latest ConditionsUpdated 1:00:02 PM GMT+10:10 Saturday, Oct 1, 2016
Currently Today's Max Today's Min Today's Average
Temperature 58.8°F14.9°C 61.0°F16.1°C 56.5°F13.6°C 58.8°F14.9°C
Dew Point 51.6°F10.9°C 55.4°F13.0°C 51.6°F10.9°C 53.2°F11.8°C
Winds 7.3 mph W11.7 kmh W 11.4 mph WNW18.3 kmh WNW - 9.3 mph 15.0 kmh
Wind Gusts 17.4 mph28.0 kmh 25.1 mph40.4 kmh - -
Humidity 77% 91% 77% 82%
Pressure 29.70 in1005.8 mb 29.70 in1005.8 mb 29.68 in1005.1 mb -
Hour Temp Dew Point Humidity Winds Wind Gusts Pressure Precip Precip Rate Daily Precip Total
01:00 PM 58.8°F14.9°C 51.6°F10.9°C 77% 7.3 mph W11.7 kmh W 17.4 mph28.0 kmh 29.70 in1005.8 mb 0.00 in0.0 mm 0.00 in0.0 mm 0.00 in0.0 mm
12:50 PM 58.8°F14.9°C 51.6°F10.9°C 77% 7.7 mph W12.4 kmh W 15.9 mph25.6 kmh 29.70 in1005.8 mb 0.00 in0.0 mm 0.00 in0.0 mm 0.00 in0.0 mm
12:40 PM 58.5°F14.7°C 52.0°F11.1°C 79% 9.0 mph WNW14.5 kmh WNW 15.9 mph25.6 kmh 29.70 in1005.8 mb 0.00 in0.0 mm 0.00 in0.0 mm 0.00 in0.0 mm
12:30 PM 58.5°F14.7°C 52.7°F11.5°C 81% 7.9 mph NW12.7 kmh NW 14.5 mph23.3 kmh 29.70 in1005.8 mb 0.00 in0.0 mm 0.00 in0.0 mm 0.00 in0.0 mm
12:20 PM 58.5°F14.7°C 53.0°F11.7°C 82% 7.9 mph NW12.7 kmh NW 15.9 mph25.6 kmh 29.69 in1005.4 mb 0.00 in0.0 mm 0.00 in0.0 mm 0.00 in0.0 mm
12:10 PM 58.5°F14.7°C 52.3°F11.3°C 80% 9.1 mph W14.6 kmh W 19.0 mph30.6 kmh 29.69 in1005.4 mb 0.00 in0.0 mm 0.00 in0.0 mm 0.00 in0.0 mm
12:00 PM 59.2°F15.1°C 52.0°F11.1°C 77% 9.7 mph WNW15.6 kmh WNW 17.4 mph28.0 kmh 29.69 in1005.4 mb 0.00 in0.0 mm 0.00 in0.0 mm 0.00 in0.0 mm
11:50 AM 58.6°F14.8°C 52.8°F11.6°C 81% 8.2 mph WNW13.2 kmh WNW 16.8 mph27.0 kmh 29.69 in1005.4 mb 0.00 in0.0 mm 0.00 in0.0 mm 0.00 in0.0 mm
11:40 AM 59.2°F15.1°C 52.7°F11.5°C 79% 9.3 mph W15.0 kmh W 17.4 mph28.0 kmh 29.69 in1005.4 mb 0.00 in0.0 mm 0.00 in0.0 mm 0.00 in0.0 mm
11:30 AM 60.3°F15.7°C 53.0°F11.7°C 77% 9.3 mph W15.0 kmh W 19.7 mph31.7 kmh 29.69 in1005.4 mb 0.00 in0.0 mm 0.00 in0.0 mm 0.00 in0.0 mm
11:20 AM 60.6°F15.9°C 54.1°F12.3°C 79% 10.7 mph WSW17.2 kmh WSW 19.0 mph30.6 kmh 29.68 in1005.1 mb 0.00 in0.0 mm 0.00 in0.0 mm 0.00 in0.0 mm
11:10 AM 60.4°F15.8°C 53.9°F12.2°C 79% 8.3 mph WNW13.4 kmh WNW 15.2 mph24.5 kmh 29.68 in1005.1 mb 0.00 in0.0 mm 0.00 in0.0 mm 0.00 in0.0 mm
11:00 AM 58.3°F14.6°C 52.8°F11.6°C 82% 10.9 mph WNW17.5 kmh WNW 19.0 mph30.6 kmh 29.69 in1005.4 mb 0.00 in0.0 mm 0.00 in0.0 mm 0.00 in0.0 mm
10:50 AM 61.0°F16.1°C 54.4°F12.4°C 79% 10.0 mph W16.1 kmh W 19.0 mph30.6 kmh 29.69 in1005.4 mb 0.00 in0.0 mm 0.00 in0.0 mm 0.00 in0.0 mm
10:40 AM 60.3°F15.7°C 55.4°F13.0°C 84% 10.9 mph WNW17.5 kmh WNW 20.6 mph33.2 kmh 29.68 in1005.1 mb 0.00 in0.0 mm 0.00 in0.0 mm 0.00 in0.0 mm
10:30 AM 58.3°F14.6°C 55.1°F12.8°C 89% 11.4 mph WNW18.3 kmh WNW 19.0 mph30.6 kmh 29.68 in1005.1 mb 0.00 in0.0 mm 0.00 in0.0 mm 0.00 in0.0 mm
10:20 AM 56.7°F13.7°C 53.8°F12.1°C 90% 9.8 mph WNW15.8 kmh WNW 22.1 mph35.6 kmh 29.69 in1005.4 mb 0.00 in0.0 mm 0.00 in0.0 mm 0.00 in0.0 mm
10:10 AM 56.5°F13.6°C 53.9°F12.2°C 91% 9.5 mph W15.3 kmh W 25.1 mph40.4 kmh 29.68 in1005.1 mb 0.00 in0.0 mm 0.00 in0.0 mm 0.00 in0.0 mm
10:00 AM 56.5°F13.6°C 53.6°F12.0°C 90% 9.1 mph WNW14.6 kmh WNW 18.3 mph29.5 kmh 29.68 in1005.1 mb 0.00 in0.0 mm 0.00 in0.0 mm 0.00 in0.0 mm
09:50 AM 57.2°F14.0°C 53.7°F12.1°C 88% 10.2 mph WNW16.4 kmh WNW 18.3 mph29.5 kmh 29.68 in1005.1 mb 0.00 in0.0 mm 0.00 in0.0 mm 0.00 in0.0 mm
09:40 AM 57.9°F14.4°C 54.7°F12.6°C 89% 10.5 mph W16.9 kmh W 18.3 mph29.5 kmh 29.68 in1005.1 mb 0.00 in0.0 mm 0.00 in0.0 mm 0.00 in0.0 mm
09:30 AM 57.4°F14.1°C 55.4°F13.0°C 93% 10.8 mph NW17.4 kmh NW 15.2 mph24.5 kmh 29.68 in1005.1 mb 0.00 in0.0 mm 0.00 in0.0 mm 0.00 in0.0 mm
09:20 AM 57.4°F14.1°C 55.4°F13.0°C 93% 10.1 mph W16.3 kmh W 16.8 mph27.0 kmh 29.67 in1004.7 mb 0.00 in0.0 mm 0.00 in0.0 mm 0.00 in0.0 mm
09:10 AM 56.5°F13.6°C 55.4°F13.0°C 96% 8.9 mph NW14.3 kmh NW 14.5 mph23.3 kmh 29.67 in1004.7 mb 0.00 in0.0 mm 0.00 in0.0 mm 0.00 in0.0 mm
09:00 AM 54.7°F12.6°C 53.9°F12.2°C 97% 11.4 mph NW18.3 kmh NW 15.2 mph24.5 kmh 29.67 in1004.7 mb 0.00 in0.0 mm 0.00 in0.0 mm 0.00 in0.0 mm
08:50 AM 54.7°F12.6°C 53.9°F12.2°C 97% 11.4 mph NW18.3 kmh NW 15.2 mph24.5 kmh 29.66 in1004.4 mb 0.00 in0.0 mm 0.00 in0.0 mm 0.00 in0.0 mm
08:40 AM 54.7°F12.6°C 53.9°F12.2°C 97% 11.0 mph WNW17.7 kmh WNW 15.2 mph24.5 kmh 29.66 in1004.4 mb 0.00 in0.0 mm 0.00 in0.0 mm 0.00 in0.0 mm
08:30 AM 54.1°F12.3°C 53.3°F11.8°C 97% 9.2 mph NW14.8 kmh NW 13.0 mph20.9 kmh 29.66 in1004.4 mb 0.00 in0.0 mm 0.00 in0.0 mm 0.00 in0.0 mm
08:20 AM 54.1°F12.3°C 53.3°F11.8°C 97% 9.2 mph NW14.8 kmh NW 13.0 mph20.9 kmh 29.66 in1004.4 mb 0.00 in0.0 mm 0.00 in0.0 mm 0.00 in0.0 mm
08:10 AM 54.1°F12.3°C 53.3°F11.8°C 97% 9.2 mph NW14.8 kmh NW 13.0 mph20.9 kmh 29.65 in1004.1 mb 0.00 in0.0 mm 0.00 in0.0 mm 0.00 in0.0 mm
08:00 AM 54.1°F12.3°C 53.3°F11.8°C 97% 9.2 mph NW14.8 kmh NW 13.0 mph20.9 kmh 29.65 in1004.1 mb 0.00 in0.0 mm 0.00 in0.0 mm 0.00 in0.0 mm
07:50 AM 54.1°F12.3°C 53.3°F11.8°C 97% 8.7 mph WNW14.0 kmh WNW 13.0 mph20.9 kmh 29.65 in1004.1 mb 0.00 in0.0 mm 0.00 in0.0 mm 0.00 in0.0 mm
07:40 AM 54.7°F12.6°C 53.9°F12.2°C 97% 8.5 mph W13.7 kmh W 15.9 mph25.6 kmh 29.65 in1004.1 mb 0.00 in0.0 mm 0.00 in0.0 mm 0.00 in0.0 mm
07:30 AM 54.7°F12.6°C 53.9°F12.2°C 97% 10.6 mph W17.1 kmh W 20.6 mph33.2 kmh 29.64 in1003.7 mb 0.00 in0.0 mm 0.00 in0.0 mm 0.00 in0.0 mm
07:20 AM 54.5°F12.5°C 53.7°F12.1°C 97% 11.0 mph W17.7 kmh W 19.0 mph30.6 kmh 29.64 in1003.7 mb 0.00 in0.0 mm 0.00 in0.0 mm 0.00 in0.0 mm
07:10 AM 54.7°F12.6°C 53.9°F12.2°C 97% 12.3 mph WSW19.8 kmh WSW 20.6 mph33.2 kmh 29.63 in1003.4 mb 0.00 in0.0 mm 0.00 in0.0 mm 0.00 in0.0 mm
07:00 AM 54.9°F12.7°C 54.0°F12.2°C 97% 11.2 mph W18.0 kmh W 22.8 mph36.7 kmh 29.63 in1003.4 mb 0.00 in0.0 mm 0.00 in0.0 mm 0.00 in0.0 mm
06:50 AM 54.7°F12.6°C 53.9°F12.2°C 97% 11.5 mph WNW18.5 kmh WNW 19.0 mph30.6 kmh 29.62 in1003.0 mb 0.00 in0.0 mm 0.00 in0.0 mm 0.00 in0.0 mm
06:40 AM 54.9°F12.7°C 54.0°F12.2°C 97% 9.5 mph WNW15.3 kmh WNW 16.8 mph27.0 kmh 29.62 in1003.0 mb 0.00 in0.0 mm 0.00 in0.0 mm 0.00 in0.0 mm
06:30 AM 54.9°F12.7°C 54.0°F12.2°C 97% 11.1 mph NNW17.9 kmh NNW 19.7 mph31.7 kmh 29.60 in1002.4 mb 0.00 in0.0 mm 0.00 in0.0 mm 0.00 in0.0 mm
06:20 AM 54.9°F12.7°C 53.7°F12.1°C 96% 8.9 mph W14.3 kmh W 19.7 mph31.7 kmh 29.60 in1002.4 mb 0.00 in0.0 mm 0.00 in0.0 mm 0.00 in0.0 mm
06:10 AM 54.9°F12.7°C 53.5°F11.9°C 95% 9.1 mph WSW14.6 kmh WSW 15.9 mph25.6 kmh 29.59 in1002.0 mb 0.00 in0.0 mm 0.00 in0.0 mm 0.00 in0.0 mm
06:00 AM 55.4°F13.0°C 53.1°F11.7°C 92% 8.4 mph WNW13.5 kmh WNW 14.5 mph23.3 kmh 29.59 in1002.0 mb 0.00 in0.0 mm 0.00 in0.0 mm 0.00 in0.0 mm
05:50 AM 55.8°F13.2°C 53.2°F11.8°C 91% 7.8 mph W12.6 kmh W 16.8 mph27.0 kmh 29.59 in1002.0 mb 0.00 in0.0 mm 0.00 in0.0 mm 0.00 in0.0 mm
05:40 AM 55.9°F13.3°C 52.8°F11.6°C 89% 8.5 mph WSW13.7 kmh WSW 17.4 mph28.0 kmh 29.58 in1001.7 mb 0.00 in0.0 mm 0.00 in0.0 mm 0.00 in0.0 mm
05:30 AM 56.3°F13.5°C 52.8°F11.6°C 88% 9.5 mph W15.3 kmh W 19.0 mph30.6 kmh 29.57 in1001.4 mb 0.00 in0.0 mm 0.00 in0.0 mm 0.00 in0.0 mm
05:20 AM 55.9°F13.3°C 52.1°F11.2°C 87% 8.8 mph WSW14.2 kmh WSW 17.4 mph28.0 kmh 29.57 in1001.4 mb 0.00 in0.0 mm 0.00 in0.0 mm 0.00 in0.0 mm
05:10 AM 55.9°F13.3°C 52.1°F11.2°C 87% 8.4 mph W13.5 kmh W 16.8 mph27.0 kmh 29.57 in1001.4 mb 0.00 in0.0 mm 0.00 in0.0 mm 0.00 in0.0 mm
05:00 AM 56.1°F13.4°C 52.3°F11.3°C 87% 9.1 mph W14.6 kmh W 17.4 mph28.0 kmh 29.57 in1001.4 mb 0.00 in0.0 mm 0.00 in0.0 mm 0.00 in0.0 mm
04:50 AM 55.9°F13.3°C 51.8°F11.0°C 86% 9.8 mph WSW15.8 kmh WSW 18.3 mph29.5 kmh 29.56 in1001.0 mb 0.00 in0.0 mm 0.00 in0.0 mm 0.00 in0.0 mm
04:40 AM 55.9°F13.3°C 51.8°F11.0°C 86% 9.5 mph WSW15.3 kmh WSW 17.4 mph28.0 kmh 29.55 in1000.7 mb 0.00 in0.0 mm 0.00 in0.0 mm 0.00 in0.0 mm
04:30 AM 55.9°F13.3°C 51.8°F11.0°C 86% 9.5 mph W15.3 kmh W 16.8 mph27.0 kmh 29.55 in1000.7 mb 0.00 in0.0 mm 0.00 in0.0 mm 0.00 in0.0 mm
04:20 AM 55.8°F13.2°C 51.6°F10.9°C 86% 8.6 mph W13.8 kmh W 15.9 mph25.6 kmh 29.55 in1000.7 mb 0.00 in0.0 mm 0.00 in0.0 mm 0.00 in0.0 mm
04:10 AM 55.8°F13.2°C 51.3°F10.7°C 85% 9.9 mph W15.9 kmh W 18.3 mph29.5 kmh 29.55 in1000.7 mb 0.00 in0.0 mm 0.00 in0.0 mm 0.00 in0.0 mm
04:00 AM 55.8°F13.2°C 51.6°F10.9°C 86% 9.6 mph W15.4 kmh W 15.9 mph25.6 kmh 29.54 in1000.3 mb 0.00 in0.0 mm 0.00 in0.0 mm 0.00 in0.0 mm
03:50 AM 55.6°F13.1°C 52.1°F11.2°C 88% 9.0 mph W14.5 kmh W 15.2 mph24.5 kmh 29.53 in1000.0 mb 0.00 in0.0 mm 0.00 in0.0 mm 0.00 in0.0 mm
03:40 AM 55.6°F13.1°C 52.1°F11.2°C 88% 9.3 mph WSW15.0 kmh WSW 18.3 mph29.5 kmh 29.53 in1000.0 mb 0.00 in0.0 mm 0.00 in0.0 mm 0.00 in0.0 mm
03:30 AM 55.6°F13.1°C 52.4°F11.3°C 89% 7.7 mph WSW12.4 kmh WSW 16.8 mph27.0 kmh 29.52 in999.7 mb 0.00 in0.0 mm 0.00 in0.0 mm 0.00 in0.0 mm
03:20 AM 55.8°F13.2°C 52.3°F11.3°C 88% 8.3 mph W13.4 kmh W 15.2 mph24.5 kmh 29.52 in999.7 mb 0.00 in0.0 mm 0.00 in0.0 mm 0.00 in0.0 mm
03:10 AM 55.6°F13.1°C 52.1°F11.2°C 88% 8.9 mph WSW14.3 kmh WSW 15.2 mph24.5 kmh 29.52 in999.7 mb 0.00 in0.0 mm 0.00 in0.0 mm 0.00 in0.0 mm
03:00 AM 55.6°F13.1°C 52.4°F11.3°C 89% 9.1 mph WSW14.6 kmh WSW 18.3 mph29.5 kmh 29.52 in999.7 mb 0.00 in0.0 mm 0.00 in0.0 mm 0.00 in0.0 mm
02:50 AM 55.6°F13.1°C 53.0°F11.7°C 91% 8.7 mph WSW14.0 kmh WSW 16.8 mph27.0 kmh 29.52 in999.7 mb 0.00 in0.0 mm 0.00 in0.0 mm 0.00 in0.0 mm
02:40 AM 55.6°F13.1°C 52.7°F11.5°C 90% 7.7 mph WSW12.4 kmh WSW 15.2 mph24.5 kmh 29.51 in999.3 mb 0.00 in0.0 mm 0.00 in0.0 mm 0.00 in0.0 mm
02:30 AM 55.6°F13.1°C 53.3°F11.8°C 92% 8.3 mph WSW13.4 kmh WSW 17.4 mph28.0 kmh 29.51 in999.3 mb 0.00 in0.0 mm 0.00 in0.0 mm 0.00 in0.0 mm
02:20 AM 55.6°F13.1°C 53.3°F11.8°C 92% 10.0 mph WNW16.1 kmh WNW 19.0 mph30.6 kmh 29.51 in999.3 mb 0.00 in0.0 mm 0.00 in0.0 mm 0.00 in0.0 mm
02:10 AM 55.0°F12.8°C 53.4°F11.9°C 94% 10.0 mph WSW16.1 kmh WSW 20.6 mph33.2 kmh 29.51 in999.3 mb 0.00 in0.0 mm 0.00 in0.0 mm 0.00 in0.0 mm
02:00 AM 55.0°F12.8°C 53.6°F12.0°C 95% 10.4 mph W16.7 kmh W 19.0 mph30.6 kmh 29.50 in999.0 mb 0.00 in0.0 mm 0.00 in0.0 mm 0.00 in0.0 mm
01:50 AM 55.0°F12.8°C 53.9°F12.2°C 96% 10.1 mph SW16.3 kmh SW 17.4 mph28.0 kmh 29.50 in999.0 mb 0.00 in0.0 mm 0.00 in0.0 mm 0.00 in0.0 mm
01:40 AM 54.9°F12.7°C 53.7°F12.1°C 96% 10.6 mph WSW17.1 kmh WSW 18.3 mph29.5 kmh 29.50 in999.0 mb 0.00 in0.0 mm 0.00 in0.0 mm 0.00 in0.0 mm
01:30 AM 55.0°F12.8°C 54.2°F12.3°C 97% 10.5 mph WNW16.9 kmh WNW 15.9 mph25.6 kmh 29.49 in998.6 mb 0.00 in0.0 mm 0.00 in0.0 mm 0.00 in0.0 mm
01:20 AM 55.4°F13.0°C 53.4°F11.9°C 93% 9.8 mph SSW15.8 kmh SSW 13.0 mph20.9 kmh 29.50 in999.0 mb 0.00 in0.0 mm 0.00 in0.0 mm 0.00 in0.0 mm
01:10 AM 55.4°F13.0°C 53.4°F11.9°C 93% 9.8 mph SSW15.8 kmh SSW 13.0 mph20.9 kmh 29.50 in999.0 mb 0.00 in0.0 mm 0.00 in0.0 mm 0.00 in0.0 mm
01:00 AM 55.4°F13.0°C 53.4°F11.9°C 93% 9.8 mph SSW15.8 kmh SSW 13.0 mph20.9 kmh 29.49 in998.6 mb 0.00 in0.0 mm 0.00 in0.0 mm 0.00 in0.0 mm
12:50 AM 55.4°F13.0°C 53.4°F11.9°C 93% 9.8 mph SSW15.8 kmh SSW 13.0 mph20.9 kmh 29.49 in998.6 mb 0.00 in0.0 mm 0.00 in0.0 mm 0.00 in0.0 mm
12:40 AM 55.4°F13.0°C 53.4°F11.9°C 93% 9.6 mph SW15.4 kmh SW 17.4 mph28.0 kmh 29.49 in998.6 mb 0.00 in0.0 mm 0.00 in0.0 mm 0.00 in0.0 mm
12:30 AM 55.8°F13.2°C 53.8°F12.1°C 93% 10.1 mph WSW16.3 kmh WSW 21.3 mph34.3 kmh 29.48 in998.3 mb 0.00 in0.0 mm 0.00 in0.0 mm 0.00 in0.0 mm
12:20 AM 55.9°F13.3°C 53.7°F12.1°C 92% 10.4 mph W16.7 kmh W 17.4 mph28.0 kmh 29.48 in998.3 mb 0.00 in0.0 mm 0.00 in0.0 mm 0.00 in0.0 mm
12:10 AM 55.9°F13.3°C 53.7°F12.1°C 92% 10.1 mph WSW16.3 kmh WSW 21.3 mph34.3 kmh 29.48 in998.3 mb 0.00 in0.0 mm 0.00 in0.0 mm 0.00 in0.0 mm
12:00 AM 56.1°F13.4°C 53.8°F12.1°C 92% 11.8 mph W19.0 kmh W 20.6 mph33.2 kmh 29.48 in998.3 mb 0.00 in0.0 mm 0.00 in0.0 mm 0.00 in0.0 mm